Ashtead, United Kingdom
Current Conditions -  °F | °C
As of 10:50 PM on Friday 28 Nov 2014 (Local Time) from EGKK Reporting Station
Clear Clear  
Wind Chill: 52°   Ceiling: Unl
Heat Index: 52°   Visibility: 6mi
Dew Point: 50°   Wind: 7mph
Humidity: 94%   Direction: 90°E
Pressure: 29.71"   Gusts: NA
Location:  51.31°N, 0.3°W
Report Text: EGKK 282250Z 09006KT CAVOK 11/10 Q1006
Loading
Personal Weather Stations






























Interactive Weather Map New forecast layout! Learn more

10-Day Weather Forecast

Advertisements
Track Severe Weather on mobile